Impacts METAR Board
IDs:

KERV - Kerrville Muni, TX, US

Updated at: 0300 UTC 06 Dec 2019
Potential Impact None Slight Moderate High
Time 05/15Z 05/16Z 05/17Z 05/18Z 05/19Z 05/20Z 05/21Z 05/22Z 05/23Z 06/00Z 06/01Z 06/02Z 06/03Z
Temp56 62 66 72 74 73 73 74 72 63 61 59 56
Dewpt54 55 55 53 52 51 51 55 58 56 56 54 53
Altim30.06 30.06 30.06 30.03 30.00 29.97 29.96 29.95 29.96 29.98 29.99 30.00 30.03
VIS5 10 10 10 10 10 10 10 10 10 10 10 10
CIG3 -- -- -- -- -- -- -- -- -- -- -- --
CoverBKNCLRCLRCLRCLRCLRCLRCLRCLRCLRCLRCLRCLR
FltCatLIFRVFRVFRVFRVFRVFRVFRVFRVFRVFRVFRVFRVFR
WXBR------------------------
WDir001702001802302001701900000
WSpd0 0 7 9 11 10 9 11 7 0 0 0 0
WGst-- -- -- -- 16 -- -- -- -- -- -- -- --
Raw hourly METARs
KERV 051455Z AUTO 00000KT 5SM BR BKN003 14/12 A3006 RMK AO2 T01350120
KERV 051555Z AUTO 00000KT 10SM CLR 17/13 A3006 RMK AO2 T01660129
KERV 051655Z AUTO 17007KT 10SM CLR 19/13 A3006 RMK AO2 T01890130
KERV 051755Z AUTO 20009KT 10SM CLR 22/11 A3003 RMK AO2 T02200114 10220 20078
KERV 051855Z AUTO 18011G16KT 10SM CLR 23/11 A3000 RMK AO2 T02330110
KERV 051955Z AUTO 23010KT 10SM CLR 23/11 A2997 RMK AO2 T02270105
KERV 052055Z AUTO 20009KT 10SM CLR 23/11 A2996 RMK AO2 T02290108
KERV 052155Z AUTO 17011KT 10SM CLR 23/13 A2995 RMK AO2 T02330127
KERV 052255Z AUTO 19007KT 10SM CLR 22/14 A2996 RMK AO2 T02200142
KERV 052355Z AUTO 00000KT 10SM CLR 17/13 A2998 RMK AO2 T01730132 10233 20173
KERV 060055Z AUTO 00000KT 10SM CLR 16/13 A2999 RMK AO2 T01620131
KERV 060155Z AUTO 00000KT 10SM CLR 15/12 A3000 RMK AO2 T01480124
KERV 060255Z AUTO 00000KT 10SM CLR 14/12 A3003 RMK AO2 T01350116